Kostelni Myslova, Czech Republic
Current Conditions -  °F | °C
As of 9:00 AM on Wednesday 26 Nov 2014 (Local Time) from LKNA Reporting Station
Moderate Fog Moderate Fog  
Wind Chill: 26°   Ceiling: 100
Heat Index: 32°   Visibility: 0.43mi
Dew Point: 32°   Wind: 7mph
Humidity: 100%   Direction: 90°E
Pressure: 30.21"   Gusts: NA
Location:  49.15°N, 15.43°E
Report Text: LKNA 260700Z 09006KT 0700 FZFG VV001 M00/M00 Q1023 NOSIG
Loading
Personal Weather Stations






























Interactive Weather Map New forecast layout! Learn more

10-Day Weather Forecast

Advertisements
Track Severe Weather on mobile